sensor_id;sensor_type;location;lat;lon;timestamp;P1;durP1;ratioP1;P2;durP2;ratioP2
15281;SDS011;7742;44.320;19.820;2023-07-13T00:00:10;22.85;;;21.35;;
15281;SDS011;7742;44.320;19.820;2023-07-13T00:02:40;21.47;;;19.83;;
15281;SDS011;7742;44.320;19.820;2023-07-13T00:05:07;21.80;;;20.40;;
15281;SDS011;7742;44.320;19.820;2023-07-13T00:07:34;22.08;;;20.48;;
15281;SDS011;7742;44.320;19.820;2023-07-13T00:10:01;22.02;;;20.35;;
15281;SDS011;7742;44.320;19.820;2023-07-13T00:12:30;20.13;;;18.85;;
15281;SDS011;7742;44.320;19.820;2023-07-13T00:14:57;22.35;;;20.88;;
15281;SDS011;7742;44.320;19.820;2023-07-13T00:17:26;21.17;;;19.77;;
15281;SDS011;7742;44.320;19.820;2023-07-13T00:19:54;21.73;;;20.13;;
15281;SDS011;7742;44.320;19.820;2023-07-13T00:22:22;21.85;;;20.33;;
15281;SDS011;7742;44.320;19.820;2023-07-13T00:24:49;21.60;;;20.20;;
15281;SDS011;7742;44.320;19.820;2023-07-13T00:27:17;21.90;;;20.40;;
15281;SDS011;7742;44.320;19.820;2023-07-13T00:29:44;21.88;;;20.38;;
15281;SDS011;7742;44.320;19.820;2023-07-13T00:32:11;21.63;;;20.23;;
15281;SDS011;7742;44.320;19.820;2023-07-13T00:34:39;23.00;;;21.50;;
15281;SDS011;7742;44.320;19.820;2023-07-13T00:37:06;23.75;;;22.05;;
15281;SDS011;7742;44.320;19.820;2023-07-13T00:39:33;22.77;;;21.10;;
15281;SDS011;7742;44.320;19.820;2023-07-13T00:42:00;22.10;;;20.60;;
15281;SDS011;7742;44.320;19.820;2023-07-13T00:44:27;22.35;;;20.80;;
15281;SDS011;7742;44.320;19.820;2023-07-13T00:46:54;22.70;;;21.30;;
15281;SDS011;7742;44.320;19.820;2023-07-13T00:49:24;26.30;;;24.45;;
15281;SDS011;7742;44.320;19.820;2023-07-13T00:51:53;23.20;;;21.70;;
15281;SDS011;7742;44.320;19.820;2023-07-13T00:54:22;23.65;;;22.15;;
15281;SDS011;7742;44.320;19.820;2023-07-13T00:56:50;24.67;;;22.87;;
15281;SDS011;7742;44.320;19.820;2023-07-13T00:59:17;23.55;;;21.83;;
15281;SDS011;7742;44.320;19.820;2023-07-13T01:01:45;23.52;;;21.83;;
15281;SDS011;7742;44.320;19.820;2023-07-13T01:04:12;22.98;;;21.17;;
15281;SDS011;7742;44.320;19.820;2023-07-13T01:06:39;22.97;;;21.47;;
15281;SDS011;7742;44.320;19.820;2023-07-13T01:09:08;23.40;;;21.83;;
15281;SDS011;7742;44.320;19.820;2023-07-13T01:11:36;23.55;;;21.98;;
15281;SDS011;7742;44.320;19.820;2023-07-13T01:14:03;24.27;;;22.77;;
15281;SDS011;7742;44.320;19.820;2023-07-13T01:16:31;23.85;;;22.15;;
15281;SDS011;7742;44.320;19.820;2023-07-13T01:18:58;22.40;;;20.70;;
15281;SDS011;7742;44.320;19.820;2023-07-13T01:21:31;22.48;;;21.00;;
15281;SDS011;7742;44.320;19.820;2023-07-13T01:24:01;22.75;;;21.05;;
15281;SDS011;7742;44.320;19.820;2023-07-13T01:26:28;23.67;;;21.93;;
15281;SDS011;7742;44.320;19.820;2023-07-13T01:28:55;23.25;;;21.70;;
15281;SDS011;7742;44.320;19.820;2023-07-13T01:31:23;23.55;;;21.95;;
15281;SDS011;7742;44.320;19.820;2023-07-13T01:33:51;22.88;;;21.42;;
15281;SDS011;7742;44.320;19.820;2023-07-13T01:36:18;23.58;;;21.88;;
15281;SDS011;7742;44.320;19.820;2023-07-13T01:38:47;23.13;;;21.67;;
15281;SDS011;7742;44.320;19.820;2023-07-13T01:41:14;22.25;;;20.85;;
15281;SDS011;7742;44.320;19.820;2023-07-13T01:43:41;21.60;;;20.30;;
15281;SDS011;7742;44.320;19.820;2023-07-13T01:46:08;24.13;;;22.73;;
15281;SDS011;7742;44.320;19.820;2023-07-13T01:48:35;25.10;;;23.40;;
15281;SDS011;7742;44.320;19.820;2023-07-13T01:51:02;24.45;;;22.88;;
15281;SDS011;7742;44.320;19.820;2023-07-13T01:53:29;23.90;;;22.40;;
15281;SDS011;7742;44.320;19.820;2023-07-13T01:55:57;24.40;;;22.40;;
15281;SDS011;7742;44.320;19.820;2023-07-13T01:58:24;25.23;;;23.48;;
15281;SDS011;7742;44.320;19.820;2023-07-13T02:00:52;24.55;;;22.83;;
15281;SDS011;7742;44.320;19.820;2023-07-13T02:03:28;24.50;;;22.90;;
15281;SDS011;7742;44.320;19.820;2023-07-13T02:05:55;23.70;;;22.20;;
15281;SDS011;7742;44.320;19.820;2023-07-13T02:08:24;23.73;;;22.33;;
15281;SDS011;7742;44.320;19.820;2023-07-13T02:10:51;23.75;;;22.33;;
15281;SDS011;7742;44.320;19.820;2023-07-13T02:13:20;25.42;;;23.85;;
15281;SDS011;7742;44.320;19.820;2023-07-13T02:15:49;24.60;;;23.00;;
15281;SDS011;7742;44.320;19.820;2023-07-13T02:18:16;23.00;;;21.38;;
15281;SDS011;7742;44.320;19.820;2023-07-13T02:20:43;21.52;;;20.23;;
15281;SDS011;7742;44.320;19.820;2023-07-13T02:23:09;23.23;;;21.93;;
15281;SDS011;7742;44.320;19.820;2023-07-13T02:25:36;23.33;;;22.00;;
15281;SDS011;7742;44.320;19.820;2023-07-13T02:28:12;23.88;;;22.38;;
15281;SDS011;7742;44.320;19.820;2023-07-13T02:30:41;23.67;;;22.27;;
15281;SDS011;7742;44.320;19.820;2023-07-13T02:33:08;23.15;;;21.85;;
15281;SDS011;7742;44.320;19.820;2023-07-13T02:35:35;22.57;;;21.17;;
15281;SDS011;7742;44.320;19.820;2023-07-13T02:38:02;23.88;;;22.58;;
15281;SDS011;7742;44.320;19.820;2023-07-13T02:40:29;23.55;;;22.25;;
15281;SDS011;7742;44.320;19.820;2023-07-13T02:42:58;23.40;;;21.80;;
15281;SDS011;7742;44.320;19.820;2023-07-13T02:45:25;24.35;;;22.85;;
15281;SDS011;7742;44.320;19.820;2023-07-13T02:47:53;23.43;;;21.93;;
15281;SDS011;7742;44.320;19.820;2023-07-13T02:50:20;22.92;;;21.45;;
15281;SDS011;7742;44.320;19.820;2023-07-13T02:52:47;22.13;;;20.73;;
15281;SDS011;7742;44.320;19.820;2023-07-13T02:55:14;23.27;;;21.93;;
15281;SDS011;7742;44.320;19.820;2023-07-13T02:57:42;23.38;;;21.85;;
15281;SDS011;7742;44.320;19.820;2023-07-13T03:00:16;23.70;;;22.30;;
15281;SDS011;7742;44.320;19.820;2023-07-13T03:02:45;23.53;;;22.03;;
15281;SDS011;7742;44.320;19.820;2023-07-13T03:08:16;22.92;;;21.63;;
15281;SDS011;7742;44.320;19.820;2023-07-13T03:10:44;22.70;;;21.40;;
15281;SDS011;7742;44.320;19.820;2023-07-13T03:13:11;21.52;;;20.33;;
15281;SDS011;7742;44.320;19.820;2023-07-13T03:15:38;21.70;;;20.60;;
15281;SDS011;7742;44.320;19.820;2023-07-13T03:18:05;21.27;;;20.03;;
15281;SDS011;7742;44.320;19.820;2023-07-13T03:20:32;22.40;;;21.10;;
15281;SDS011;7742;44.320;19.820;2023-07-13T03:22:59;22.95;;;21.55;;
15281;SDS011;7742;44.320;19.820;2023-07-13T03:25:27;22.07;;;20.77;;
15281;SDS011;7742;44.320;19.820;2023-07-13T03:27:54;22.15;;;20.75;;
15281;SDS011;7742;44.320;19.820;2023-07-13T03:30:21;21.85;;;20.55;;
15281;SDS011;7742;44.320;19.820;2023-07-13T03:32:48;22.83;;;21.23;;
15281;SDS011;7742;44.320;19.820;2023-07-13T03:35:15;21.50;;;20.30;;
15281;SDS011;7742;44.320;19.820;2023-07-13T03:37:42;22.00;;;20.67;;
15281;SDS011;7742;44.320;19.820;2023-07-13T03:40:09;21.55;;;20.33;;
15281;SDS011;7742;44.320;19.820;2023-07-13T03:42:38;18.83;;;17.80;;
15281;SDS011;7742;44.320;19.820;2023-07-13T03:45:05;17.75;;;16.65;;
15281;SDS011;7742;44.320;19.820;2023-07-13T03:47:32;18.35;;;17.25;;
15281;SDS011;7742;44.320;19.820;2023-07-13T03:49:59;20.10;;;18.60;;
15281;SDS011;7742;44.320;19.820;2023-07-13T03:52:26;21.30;;;19.90;;
15281;SDS011;7742;44.320;19.820;2023-07-13T03:57:39;20.75;;;19.55;;
15281;SDS011;7742;44.320;19.820;2023-07-13T04:00:07;21.55;;;20.25;;
15281;SDS011;7742;44.320;19.820;2023-07-13T04:02:44;21.33;;;20.13;;
15281;SDS011;7742;44.320;19.820;2023-07-13T04:05:23;20.90;;;19.65;;
15281;SDS011;7742;44.320;19.820;2023-07-13T04:07:50;21.20;;;19.70;;
15281;SDS011;7742;44.320;19.820;2023-07-13T04:10:21;20.50;;;19.30;;
15281;SDS011;7742;44.320;19.820;2023-07-13T04:12:54;20.60;;;19.20;;
15281;SDS011;7742;44.320;19.820;2023-07-13T04:15:21;17.65;;;16.35;;
15281;SDS011;7742;44.320;19.820;2023-07-13T04:17:48;17.63;;;16.42;;
15281;SDS011;7742;44.320;19.820;2023-07-13T04:20:15;18.97;;;17.57;;
15281;SDS011;7742;44.320;19.820;2023-07-13T04:22:42;19.13;;;17.77;;
15281;SDS011;7742;44.320;19.820;2023-07-13T04:25:09;18.75;;;17.63;;
15281;SDS011;7742;44.320;19.820;2023-07-13T04:27:36;19.35;;;17.98;;
15281;SDS011;7742;44.320;19.820;2023-07-13T04:30:08;20.15;;;18.92;;
15281;SDS011;7742;44.320;19.820;2023-07-13T04:32:35;21.33;;;20.00;;
15281;SDS011;7742;44.320;19.820;2023-07-13T04:35:01;22.17;;;20.83;;
15281;SDS011;7742;44.320;19.820;2023-07-13T04:37:29;20.80;;;19.50;;
15281;SDS011;7742;44.320;19.820;2023-07-13T04:39:56;23.33;;;22.00;;
15281;SDS011;7742;44.320;19.820;2023-07-13T04:42:23;22.15;;;20.88;;
15281;SDS011;7742;44.320;19.820;2023-07-13T04:44:50;20.27;;;19.00;;
15281;SDS011;7742;44.320;19.820;2023-07-13T04:47:19;20.45;;;19.17;;
15281;SDS011;7742;44.320;19.820;2023-07-13T04:49:46;24.63;;;23.13;;
15281;SDS011;7742;44.320;19.820;2023-07-13T04:52:13;24.13;;;22.83;;
15281;SDS011;7742;44.320;19.820;2023-07-13T04:54:40;22.60;;;21.30;;
15281;SDS011;7742;44.320;19.820;2023-07-13T04:57:07;24.85;;;23.25;;
15281;SDS011;7742;44.320;19.820;2023-07-13T04:59:34;26.40;;;25.00;;
15281;SDS011;7742;44.320;19.820;2023-07-13T05:02:01;22.77;;;21.35;;
15281;SDS011;7742;44.320;19.820;2023-07-13T05:04:30;21.17;;;19.88;;
15281;SDS011;7742;44.320;19.820;2023-07-13T05:06:56;22.83;;;21.53;;
15281;SDS011;7742;44.320;19.820;2023-07-13T05:09:23;21.83;;;20.48;;
15281;SDS011;7742;44.320;19.820;2023-07-13T05:11:50;24.88;;;23.17;;
15281;SDS011;7742;44.320;19.820;2023-07-13T05:14:17;21.48;;;20.10;;
15281;SDS011;7742;44.320;19.820;2023-07-13T05:16:44;21.17;;;19.77;;
15281;SDS011;7742;44.320;19.820;2023-07-13T05:19:11;22.50;;;20.90;;
15281;SDS011;7742;44.320;19.820;2023-07-13T05:21:39;21.77;;;20.58;;
15281;SDS011;7742;44.320;19.820;2023-07-13T05:24:07;21.10;;;19.63;;
15281;SDS011;7742;44.320;19.820;2023-07-13T05:26:35;18.13;;;17.00;;
15281;SDS011;7742;44.320;19.820;2023-07-13T05:29:11;18.88;;;17.63;;
15281;SDS011;7742;44.320;19.820;2023-07-13T05:31:38;18.87;;;17.57;;
15281;SDS011;7742;44.320;19.820;2023-07-13T05:34:05;18.83;;;17.67;;
15281;SDS011;7742;44.320;19.820;2023-07-13T05:36:32;18.02;;;17.00;;
15281;SDS011;7742;44.320;19.820;2023-07-13T05:39:00;19.10;;;17.90;;
15281;SDS011;7742;44.320;19.820;2023-07-13T05:41:29;19.65;;;18.30;;
15281;SDS011;7742;44.320;19.820;2023-07-13T05:43:56;19.80;;;18.50;;
15281;SDS011;7742;44.320;19.820;2023-07-13T05:46:22;19.57;;;18.10;;
15281;SDS011;7742;44.320;19.820;2023-07-13T05:48:49;20.85;;;19.30;;
15281;SDS011;7742;44.320;19.820;2023-07-13T05:51:16;20.33;;;18.83;;
15281;SDS011;7742;44.320;19.820;2023-07-13T05:53:43;19.73;;;18.33;;
15281;SDS011;7742;44.320;19.820;2023-07-13T05:56:12;19.98;;;18.67;;
15281;SDS011;7742;44.320;19.820;2023-07-13T05:58:39;20.63;;;19.20;;
15281;SDS011;7742;44.320;19.820;2023-07-13T06:01:08;20.35;;;19.25;;
15281;SDS011;7742;44.320;19.820;2023-07-13T06:03:35;21.63;;;20.30;;
15281;SDS011;7742;44.320;19.820;2023-07-13T06:06:04;21.80;;;20.45;;
15281;SDS011;7742;44.320;19.820;2023-07-13T06:08:31;25.00;;;23.35;;
15281;SDS011;7742;44.320;19.820;2023-07-13T06:11:03;22.50;;;21.05;;
15281;SDS011;7742;44.320;19.820;2023-07-13T06:13:31;23.95;;;22.45;;
15281;SDS011;7742;44.320;19.820;2023-07-13T06:15:58;24.00;;;22.60;;
15281;SDS011;7742;44.320;19.820;2023-07-13T06:18:25;21.75;;;20.45;;
15281;SDS011;7742;44.320;19.820;2023-07-13T06:20:52;21.30;;;19.90;;
15281;SDS011;7742;44.320;19.820;2023-07-13T06:23:19;20.88;;;19.65;;
15281;SDS011;7742;44.320;19.820;2023-07-13T06:25:46;21.63;;;20.33;;
15281;SDS011;7742;44.320;19.820;2023-07-13T06:28:13;19.70;;;18.50;;
15281;SDS011;7742;44.320;19.820;2023-07-13T06:30:44;20.95;;;19.52;;
15281;SDS011;7742;44.320;19.820;2023-07-13T06:33:11;22.50;;;21.10;;
15281;SDS011;7742;44.320;19.820;2023-07-13T06:35:38;21.53;;;20.13;;
15281;SDS011;7742;44.320;19.820;2023-07-13T06:38:04;24.50;;;22.90;;
15281;SDS011;7742;44.320;19.820;2023-07-13T06:40:31;21.60;;;20.20;;
15281;SDS011;7742;44.320;19.820;2023-07-13T06:42:58;21.47;;;20.07;;
15281;SDS011;7742;44.320;19.820;2023-07-13T06:45:26;19.70;;;18.53;;
15281;SDS011;7742;44.320;19.820;2023-07-13T06:48:14;18.88;;;17.50;;
15281;SDS011;7742;44.320;19.820;2023-07-13T06:50:41;21.80;;;20.20;;
15281;SDS011;7742;44.320;19.820;2023-07-13T06:53:08;21.02;;;19.38;;
15281;SDS011;7742;44.320;19.820;2023-07-13T06:55:35;21.73;;;19.90;;
15281;SDS011;7742;44.320;19.820;2023-07-13T06:58:01;20.17;;;18.77;;
15281;SDS011;7742;44.320;19.820;2023-07-13T07:00:28;21.25;;;19.83;;
15281;SDS011;7742;44.320;19.820;2023-07-13T07:02:55;24.05;;;22.27;;
15281;SDS011;7742;44.320;19.820;2023-07-13T07:05:24;21.00;;;19.60;;
15281;SDS011;7742;44.320;19.820;2023-07-13T07:07:53;20.20;;;19.00;;
15281;SDS011;7742;44.320;19.820;2023-07-13T07:10:38;21.30;;;19.90;;
15281;SDS011;7742;44.320;19.820;2023-07-13T07:13:05;21.27;;;19.77;;
15281;SDS011;7742;44.320;19.820;2023-07-13T07:15:32;23.05;;;21.65;;
15281;SDS011;7742;44.320;19.820;2023-07-13T07:18:00;20.77;;;19.48;;
15281;SDS011;7742;44.320;19.820;2023-07-13T07:20:29;22.88;;;21.48;;
15281;SDS011;7742;44.320;19.820;2023-07-13T07:22:58;22.10;;;20.60;;
15281;SDS011;7742;44.320;19.820;2023-07-13T07:25:24;22.60;;;21.10;;
15281;SDS011;7742;44.320;19.820;2023-07-13T07:27:51;21.50;;;20.02;;
15281;SDS011;7742;44.320;19.820;2023-07-13T07:30:18;22.33;;;20.83;;
15281;SDS011;7742;44.320;19.820;2023-07-13T07:32:45;21.25;;;19.85;;
15281;SDS011;7742;44.320;19.820;2023-07-13T07:35:12;21.27;;;19.77;;
15281;SDS011;7742;44.320;19.820;2023-07-13T07:37:40;22.08;;;20.55;;
15281;SDS011;7742;44.320;19.820;2023-07-13T07:40:07;21.53;;;20.13;;
15281;SDS011;7742;44.320;19.820;2023-07-13T07:42:34;21.05;;;19.50;;
15281;SDS011;7742;44.320;19.820;2023-07-13T07:45:01;21.53;;;19.90;;
15281;SDS011;7742;44.320;19.820;2023-07-13T07:47:29;22.27;;;20.77;;
15281;SDS011;7742;44.320;19.820;2023-07-13T07:49:58;24.80;;;23.27;;
15281;SDS011;7742;44.320;19.820;2023-07-13T07:52:25;22.38;;;20.67;;
15281;SDS011;7742;44.320;19.820;2023-07-13T07:54:54;22.85;;;21.25;;
15281;SDS011;7742;44.320;19.820;2023-07-13T07:57:21;23.63;;;22.02;;
15281;SDS011;7742;44.320;19.820;2023-07-13T07:59:47;22.30;;;20.80;;
15281;SDS011;7742;44.320;19.820;2023-07-13T08:02:14;20.80;;;19.40;;
15281;SDS011;7742;44.320;19.820;2023-07-13T08:04:41;22.23;;;20.73;;
15281;SDS011;7742;44.320;19.820;2023-07-13T08:07:09;23.23;;;21.77;;
15281;SDS011;7742;44.320;19.820;2023-07-13T08:09:35;23.15;;;21.42;;
15281;SDS011;7742;44.320;19.820;2023-07-13T08:12:04;23.38;;;21.92;;
15281;SDS011;7742;44.320;19.820;2023-07-13T08:14:32;21.10;;;19.80;;
15281;SDS011;7742;44.320;19.820;2023-07-13T08:16:59;24.35;;;22.83;;
15281;SDS011;7742;44.320;19.820;2023-07-13T08:19:26;22.98;;;21.38;;
15281;SDS011;7742;44.320;19.820;2023-07-13T08:21:52;23.38;;;21.88;;
15281;SDS011;7742;44.320;19.820;2023-07-13T08:24:21;24.08;;;22.13;;
15281;SDS011;7742;44.320;19.820;2023-07-13T08:26:48;21.55;;;20.05;;
15281;SDS011;7742;44.320;19.820;2023-07-13T08:29:16;24.20;;;22.40;;
15281;SDS011;7742;44.320;19.820;2023-07-13T08:31:43;25.20;;;23.50;;
15281;SDS011;7742;44.320;19.820;2023-07-13T08:34:11;23.00;;;21.40;;
15281;SDS011;7742;44.320;19.820;2023-07-13T08:36:38;21.60;;;20.20;;
15281;SDS011;7742;44.320;19.820;2023-07-13T08:39:04;22.63;;;21.13;;
15281;SDS011;7742;44.320;19.820;2023-07-13T08:41:31;23.23;;;21.52;;
15281;SDS011;7742;44.320;19.820;2023-07-13T08:43:59;22.42;;;20.83;;
15281;SDS011;7742;44.320;19.820;2023-07-13T08:46:32;22.45;;;20.85;;
15281;SDS011;7742;44.320;19.820;2023-07-13T08:49:02;23.25;;;21.70;;
15281;SDS011;7742;44.320;19.820;2023-07-13T08:51:34;21.80;;;20.40;;
15281;SDS011;7742;44.320;19.820;2023-07-13T08:54:03;23.45;;;21.77;;
15281;SDS011;7742;44.320;19.820;2023-07-13T08:56:32;22.85;;;21.40;;
15281;SDS011;7742;44.320;19.820;2023-07-13T08:59:00;24.13;;;22.52;;
15281;SDS011;7742;44.320;19.820;2023-07-13T09:01:33;21.92;;;20.45;;
15281;SDS011;7742;44.320;19.820;2023-07-13T09:04:07;23.50;;;21.90;;
15281;SDS011;7742;44.320;19.820;2023-07-13T09:06:39;23.60;;;22.00;;
15281;SDS011;7742;44.320;19.820;2023-07-13T09:09:09;23.17;;;21.73;;
15281;SDS011;7742;44.320;19.820;2023-07-13T09:11:41;21.60;;;20.20;;
15281;SDS011;7742;44.320;19.820;2023-07-13T09:14:24;21.60;;;20.27;;
15281;SDS011;7742;44.320;19.820;2023-07-13T09:16:54;22.85;;;21.08;;
15281;SDS011;7742;44.320;19.820;2023-07-13T09:19:23;23.02;;;21.60;;
15281;SDS011;7742;44.320;19.820;2023-07-13T09:21:52;22.75;;;21.15;;
15281;SDS011;7742;44.320;19.820;2023-07-13T09:24:27;23.05;;;21.52;;
15281;SDS011;7742;44.320;19.820;2023-07-13T09:26:55;22.75;;;21.15;;
15281;SDS011;7742;44.320;19.820;2023-07-13T09:29:26;22.50;;;20.97;;
15281;SDS011;7742;44.320;19.820;2023-07-13T09:31:55;21.02;;;19.70;;
15281;SDS011;7742;44.320;19.820;2023-07-13T09:34:25;22.67;;;21.05;;
15281;SDS011;7742;44.320;19.820;2023-07-13T09:36:52;21.52;;;20.13;;
15281;SDS011;7742;44.320;19.820;2023-07-13T09:39:21;24.00;;;22.48;;
15281;SDS011;7742;44.320;19.820;2023-07-13T09:41:51;24.48;;;22.80;;
15281;SDS011;7742;44.320;19.820;2023-07-13T09:44:26;22.30;;;20.90;;
15281;SDS011;7742;44.320;19.820;2023-07-13T09:46:57;20.38;;;18.98;;
15281;SDS011;7742;44.320;19.820;2023-07-13T09:49:24;21.77;;;20.27;;
15281;SDS011;7742;44.320;19.820;2023-07-13T09:51:57;22.93;;;21.40;;
15281;SDS011;7742;44.320;19.820;2023-07-13T09:54:34;22.90;;;21.30;;
15281;SDS011;7742;44.320;19.820;2023-07-13T09:57:01;22.65;;;21.00;;
15281;SDS011;7742;44.320;19.820;2023-07-13T09:59:29;21.33;;;19.83;;
15281;SDS011;7742;44.320;19.820;2023-07-13T10:01:58;22.38;;;20.92;;
15281;SDS011;7742;44.320;19.820;2023-07-13T10:04:27;23.65;;;22.05;;
15281;SDS011;7742;44.320;19.820;2023-07-13T10:07:04;23.60;;;22.10;;
15281;SDS011;7742;44.320;19.820;2023-07-13T10:09:32;22.60;;;21.10;;
15281;SDS011;7742;44.320;19.820;2023-07-13T10:12:13;23.98;;;22.38;;
15281;SDS011;7742;44.320;19.820;2023-07-13T10:14:41;24.15;;;22.55;;
15281;SDS011;7742;44.320;19.820;2023-07-13T10:17:10;21.65;;;20.13;;
15281;SDS011;7742;44.320;19.820;2023-07-13T10:19:51;20.90;;;19.30;;
15281;SDS011;7742;44.320;19.820;2023-07-13T10:22:21;20.42;;;19.02;;
15281;SDS011;7742;44.320;19.820;2023-07-13T10:24:50;19.80;;;18.33;;
15281;SDS011;7742;44.320;19.820;2023-07-13T10:27:18;20.65;;;19.05;;
15281;SDS011;7742;44.320;19.820;2023-07-13T10:29:46;21.33;;;19.80;;
15281;SDS011;7742;44.320;19.820;2023-07-13T10:32:15;20.20;;;18.80;;
15281;SDS011;7742;44.320;19.820;2023-07-13T10:34:43;20.95;;;19.45;;
15281;SDS011;7742;44.320;19.820;2023-07-13T10:37:15;19.48;;;18.15;;
15281;SDS011;7742;44.320;19.820;2023-07-13T10:39:43;21.38;;;20.08;;
15281;SDS011;7742;44.320;19.820;2023-07-13T10:42:11;22.75;;;21.20;;
15281;SDS011;7742;44.320;19.820;2023-07-13T10:44:40;21.20;;;19.63;;
15281;SDS011;7742;44.320;19.820;2023-07-13T10:47:07;21.23;;;19.70;;
15281;SDS011;7742;44.320;19.820;2023-07-13T10:49:36;22.17;;;20.77;;
15281;SDS011;7742;44.320;19.820;2023-07-13T10:52:03;24.33;;;22.83;;
15281;SDS011;7742;44.320;19.820;2023-07-13T10:54:31;23.48;;;21.88;;
15281;SDS011;7742;44.320;19.820;2023-07-13T11:00:10;22.88;;;21.30;;
15281;SDS011;7742;44.320;19.820;2023-07-13T11:02:40;23.33;;;21.85;;
15281;SDS011;7742;44.320;19.820;2023-07-13T11:05:17;22.25;;;20.85;;
15281;SDS011;7742;44.320;19.820;2023-07-13T11:07:52;22.90;;;21.38;;
15281;SDS011;7742;44.320;19.820;2023-07-13T11:13:00;22.27;;;20.80;;
15281;SDS011;7742;44.320;19.820;2023-07-13T11:15:43;21.42;;;20.13;;
15281;SDS011;7742;44.320;19.820;2023-07-13T11:18:19;23.48;;;21.98;;
15281;SDS011;7742;44.320;19.820;2023-07-13T11:20:47;20.65;;;19.35;;
15281;SDS011;7742;44.320;19.820;2023-07-13T11:23:19;22.75;;;21.25;;
15281;SDS011;7742;44.320;19.820;2023-07-13T11:25:46;25.40;;;23.77;;
15281;SDS011;7742;44.320;19.820;2023-07-13T11:28:17;22.92;;;21.23;;
15281;SDS011;7742;44.320;19.820;2023-07-13T11:30:47;23.33;;;21.77;;
15281;SDS011;7742;44.320;19.820;2023-07-13T11:33:16;22.95;;;21.23;;
15281;SDS011;7742;44.320;19.820;2023-07-13T11:35:57;22.17;;;20.80;;
15281;SDS011;7742;44.320;19.820;2023-07-13T11:38:28;22.48;;;20.98;;
15281;SDS011;7742;44.320;19.820;2023-07-13T11:40:56;22.35;;;20.90;;
15281;SDS011;7742;44.320;19.820;2023-07-13T11:43:25;22.57;;;20.67;;
15281;SDS011;7742;44.320;19.820;2023-07-13T11:45:52;21.80;;;20.40;;
15281;SDS011;7742;44.320;19.820;2023-07-13T11:48:20;22.17;;;20.67;;
15281;SDS011;7742;44.320;19.820;2023-07-13T11:50:56;20.52;;;19.23;;
15281;SDS011;7742;44.320;19.820;2023-07-13T11:53:25;21.33;;;20.05;;
15281;SDS011;7742;44.320;19.820;2023-07-13T11:55:52;21.33;;;19.93;;
15281;SDS011;7742;44.320;19.820;2023-07-13T11:58:21;21.60;;;20.20;;
15281;SDS011;7742;44.320;19.820;2023-07-13T12:00:50;22.17;;;20.67;;
15281;SDS011;7742;44.320;19.820;2023-07-13T12:15:55;21.63;;;20.13;;
15281;SDS011;7742;44.320;19.820;2023-07-13T12:18:23;22.55;;;20.95;;
15281;SDS011;7742;44.320;19.820;2023-07-13T12:20:55;21.25;;;19.77;;
15281;SDS011;7742;44.320;19.820;2023-07-13T12:23:24;21.80;;;20.45;;
15281;SDS011;7742;44.320;19.820;2023-07-13T12:25:52;21.73;;;20.25;;
15281;SDS011;7742;44.320;19.820;2023-07-13T12:28:20;20.90;;;19.40;;
15281;SDS011;7742;44.320;19.820;2023-07-13T12:30:47;22.75;;;21.25;;
15281;SDS011;7742;44.320;19.820;2023-07-13T12:33:16;22.67;;;21.27;;
15281;SDS011;7742;44.320;19.820;2023-07-13T12:35:44;23.67;;;22.17;;
15281;SDS011;7742;44.320;19.820;2023-07-13T12:38:12;23.48;;;21.77;;
15281;SDS011;7742;44.320;19.820;2023-07-13T12:40:39;22.83;;;21.15;;
15281;SDS011;7742;44.320;19.820;2023-07-13T12:43:10;22.48;;;20.98;;
15281;SDS011;7742;44.320;19.820;2023-07-13T12:45:38;23.55;;;21.77;;
15281;SDS011;7742;44.320;19.820;2023-07-13T12:48:06;22.83;;;21.27;;
15281;SDS011;7742;44.320;19.820;2023-07-13T12:50:41;22.70;;;21.10;;
15281;SDS011;7742;44.320;19.820;2023-07-13T12:53:09;23.40;;;21.83;;
15281;SDS011;7742;44.320;19.820;2023-07-13T12:55:41;22.60;;;21.10;;
15281;SDS011;7742;44.320;19.820;2023-07-13T12:58:10;23.90;;;22.20;;
15281;SDS011;7742;44.320;19.820;2023-07-13T13:00:40;23.35;;;21.75;;
15281;SDS011;7742;44.320;19.820;2023-07-13T13:03:12;22.40;;;20.77;;
15281;SDS011;7742;44.320;19.820;2023-07-13T13:05:45;21.67;;;20.05;;
15281;SDS011;7742;44.320;19.820;2023-07-13T13:08:12;21.60;;;19.77;;
15281;SDS011;7742;44.320;19.820;2023-07-13T13:10:40;25.15;;;23.55;;
15281;SDS011;7742;44.320;19.820;2023-07-13T13:13:07;22.90;;;21.17;;
15281;SDS011;7742;44.320;19.820;2023-07-13T13:15:34;24.40;;;22.50;;
15281;SDS011;7742;44.320;19.820;2023-07-13T13:18:02;23.30;;;21.60;;
15281;SDS011;7742;44.320;19.820;2023-07-13T13:20:29;23.38;;;21.88;;
15281;SDS011;7742;44.320;19.820;2023-07-13T13:22:58;22.48;;;20.83;;
15281;SDS011;7742;44.320;19.820;2023-07-13T13:25:25;22.50;;;20.90;;
15281;SDS011;7742;44.320;19.820;2023-07-13T13:27:51;22.95;;;21.38;;
15281;SDS011;7742;44.320;19.820;2023-07-13T13:30:18;23.38;;;21.80;;
15281;SDS011;7742;44.320;19.820;2023-07-13T13:32:47;23.65;;;21.85;;
15281;SDS011;7742;44.320;19.820;2023-07-13T13:35:15;23.55;;;21.85;;
15281;SDS011;7742;44.320;19.820;2023-07-13T13:37:43;22.88;;;21.15;;
15281;SDS011;7742;44.320;19.820;2023-07-13T13:40:15;22.98;;;21.50;;
15281;SDS011;7742;44.320;19.820;2023-07-13T13:42:42;23.92;;;22.13;;
15281;SDS011;7742;44.320;19.820;2023-07-13T13:45:10;24.17;;;22.45;;
15281;SDS011;7742;44.320;19.820;2023-07-13T13:47:37;23.23;;;21.75;;
15281;SDS011;7742;44.320;19.820;2023-07-13T13:50:15;22.35;;;20.85;;
15281;SDS011;7742;44.320;19.820;2023-07-13T13:52:42;25.38;;;23.65;;
15281;SDS011;7742;44.320;19.820;2023-07-13T13:55:13;25.23;;;23.58;;
15281;SDS011;7742;44.320;19.820;2023-07-13T13:57:41;24.58;;;23.08;;
15281;SDS011;7742;44.320;19.820;2023-07-13T14:00:09;25.30;;;23.40;;
15281;SDS011;7742;44.320;19.820;2023-07-13T14:02:39;26.55;;;24.73;;
15281;SDS011;7742;44.320;19.820;2023-07-13T14:05:09;24.20;;;22.50;;
15281;SDS011;7742;44.320;19.820;2023-07-13T14:07:38;24.35;;;22.65;;
15281;SDS011;7742;44.320;19.820;2023-07-13T14:10:10;24.80;;;23.20;;
15281;SDS011;7742;44.320;19.820;2023-07-13T14:12:37;24.20;;;22.48;;
15281;SDS011;7742;44.320;19.820;2023-07-13T14:15:08;23.85;;;22.10;;
15281;SDS011;7742;44.320;19.820;2023-07-13T14:17:41;25.23;;;23.45;;
15281;SDS011;7742;44.320;19.820;2023-07-13T14:20:09;23.17;;;21.45;;
15281;SDS011;7742;44.320;19.820;2023-07-13T14:22:36;23.00;;;21.45;;
15281;SDS011;7742;44.320;19.820;2023-07-13T14:25:04;24.45;;;22.63;;
15281;SDS011;7742;44.320;19.820;2023-07-13T14:27:32;23.67;;;22.07;;
15281;SDS011;7742;44.320;19.820;2023-07-13T14:29:58;22.48;;;20.88;;
15281;SDS011;7742;44.320;19.820;2023-07-13T14:32:27;22.67;;;20.85;;
15281;SDS011;7742;44.320;19.820;2023-07-13T14:34:54;22.55;;;20.95;;
15281;SDS011;7742;44.320;19.820;2023-07-13T14:37:21;25.23;;;23.33;;
15281;SDS011;7742;44.320;19.820;2023-07-13T14:39:48;24.30;;;22.48;;
15281;SDS011;7742;44.320;19.820;2023-07-13T14:42:16;23.35;;;21.60;;
15281;SDS011;7742;44.320;19.820;2023-07-13T14:44:43;23.15;;;21.42;;
15281;SDS011;7742;44.320;19.820;2023-07-13T14:47:10;24.52;;;22.75;;
15281;SDS011;7742;44.320;19.820;2023-07-13T14:49:40;27.48;;;25.60;;
15281;SDS011;7742;44.320;19.820;2023-07-13T14:52:10;27.42;;;25.83;;